Time;durP1;ratioP1;P1;durP2;ratioP2;P2;SDS_P1;SDS_P2;PMS_P1;PMS_P2;Temp;Humidity;BMP_temperature;BMP_pressure;BME280_temperature;BME280_humidity;BME280_pressure;Samples;Min_cycle;Max_cycle;Signal;HPM_P1;HPM_P2
2023/11/16 00:00:12;;;;;;;3.13;0.85;;;;;;;;;;10503448;28;20170;-74
2023/11/16 00:05:16;;;;;;;2.83;0.73;;;;;;;;;;10487263;28;20055;-73
2023/11/16 00:10:28;;;;;;;0.40;0.38;;;;;;;;;;10497112;28;20413;-74
2023/11/16 00:15:36;;;;;;;2.38;0.60;;;;;;;;;;10490618;28;20072;-74
2023/11/16 00:20:41;;;;;;;4.22;0.70;;;;;;;;;;10504697;28;20051;-73
2023/11/16 00:25:50;;;;;;;0.40;0.22;;;;;;;;;;10471824;28;20155;-74
2023/11/16 00:30:55;;;;;;;0.63;0.60;;;;;;;;;;10487333;28;20048;-73
2023/11/16 00:35:59;;;;;;;0.50;0.47;;;;;;;;;;10470865;28;20038;-73
2023/11/16 00:41:03;;;;;;;;;;;;;;;;;;10561397;27;20116;-74
2023/11/16 00:46:11;;;;;;;1.27;0.32;;;;;;;;;;10553528;28;19919;-74
2023/11/16 00:51:15;;;;;;;0.68;0.55;;;;;;;;;;10536335;27;20570;-73
2023/11/16 00:56:19;;;;;;;0.90;0.57;;;;;;;;;;10557605;27;20043;-74
2023/11/16 01:01:32;;;;;;;0.68;0.30;;;;;;;;;;10556915;28;20036;-73
2023/11/16 01:06:39;;;;;;;0.82;0.68;;;;;;;;;;10551816;27;20085;-74
2023/11/16 01:11:42;;;;;;;0.50;0.25;;;;;;;;;;10535047;27;20984;-73
2023/11/16 01:16:49;;;;;;;4.83;1.47;;;;;;;;;;10555637;28;20127;-74
2023/11/16 01:21:57;;;;;;;1.58;0.70;;;;;;;;;;10551279;27;20408;-74
2023/11/16 01:27:15;;;;;;;0.40;0.30;;;;;;;;;;10550071;27;20477;-74
2023/11/16 01:32:22;;;;;;;6.85;1.35;;;;;;;;;;10537816;27;20036;-74
2023/11/16 01:37:26;;;;;;;0.40;0.40;;;;;;;;;;10552278;27;20175;-75
2023/11/16 01:42:29;;;;;;;0.80;0.60;;;;;;;;;;10535446;28;20044;-75
2023/11/16 01:47:41;;;;;;;1.52;0.90;;;;;;;;;;10549658;28;20067;-74
2023/11/16 01:52:46;;;;;;;1.38;0.55;;;;;;;;;;10537421;27;20043;-74
2023/11/16 01:57:55;;;;;;;0.73;0.50;;;;;;;;;;10568949;27;20265;-74
2023/11/16 02:03:06;;;;;;;1.17;0.55;;;;;;;;;;10517962;27;20411;-75
2023/11/16 02:08:11;;;;;;;1.98;0.52;;;;;;;;;;10513813;28;20480;-75
2023/11/16 02:13:16;;;;;;;3.00;0.68;;;;;;;;;;10534037;28;20580;-74
2023/11/16 02:18:26;;;;;;;1.55;0.80;;;;;;;;;;10552874;28;20035;-74
2023/11/16 02:23:36;;;;;;;3.05;0.68;;;;;;;;;;10554478;27;20056;-73
2023/11/16 02:28:46;;;;;;;1.17;0.50;;;;;;;;;;10566372;27;20036;-74
2023/11/16 02:33:51;;;;;;;0.68;0.30;;;;;;;;;;10535405;28;20476;-74
2023/11/16 02:39:01;;;;;;;1.73;0.70;;;;;;;;;;10528674;27;20123;-74
2023/11/16 02:44:07;;;;;;;1.42;0.75;;;;;;;;;;10533150;27;20047;-73
2023/11/16 02:49:11;;;;;;;2.28;0.40;;;;;;;;;;10532300;27;20134;-74
2023/11/16 02:54:21;;;;;;;2.20;0.38;;;;;;;;;;10549720;28;20285;-75
2023/11/16 02:59:24;;;;;;;1.33;0.73;;;;;;;;;;10512634;28;20035;-74
2023/11/16 03:04:28;;;;;;;3.17;0.90;;;;;;;;;;10529135;28;20046;-74
2023/11/16 03:09:34;;;;;;;2.88;0.82;;;;;;;;;;10549056;27;20126;-74
2023/11/16 03:14:42;;;;;;;1.00;0.50;;;;;;;;;;10554073;27;20051;-74
2023/11/16 03:19:50;;;;;;;1.30;0.40;;;;;;;;;;10531232;27;20043;-74
2023/11/16 03:24:59;;;;;;;1.02;0.45;;;;;;;;;;10527437;28;20218;-75
2023/11/16 03:30:16;;;;;;;2.38;0.80;;;;;;;;;;10562930;27;20058;-74
2023/11/16 03:35:23;;;;;;;3.70;0.70;;;;;;;;;;10547189;28;20074;-74
2023/11/16 03:40:30;;;;;;;2.42;1.45;;;;;;;;;;10556168;28;20047;-74
2023/11/16 03:45:36;;;;;;;3.25;0.90;;;;;;;;;;10552969;28;20040;-74
2023/11/16 03:50:40;;;;;;;0.55;0.30;;;;;;;;;;10549690;28;20120;-74
2023/11/16 03:55:47;;;;;;;3.47;0.88;;;;;;;;;;10520026;28;20507;-74
2023/11/16 04:00:50;;;;;;;3.78;0.93;;;;;;;;;;10530522;28;20055;-74
2023/11/16 04:05:55;;;;;;;5.28;1.05;;;;;;;;;;10553800;28;20062;-73
2023/11/16 04:11:01;;;;;;;2.10;0.82;;;;;;;;;;10550944;28;20155;-74
2023/11/16 04:16:07;;;;;;;7.90;1.08;;;;;;;;;;10554198;27;20044;-74
2023/11/16 04:21:12;;;;;;;0.73;0.30;;;;;;;;;;10555388;27;20052;-75
2023/11/16 04:26:20;;;;;;;1.90;0.38;;;;;;;;;;10565075;27;20032;-73
2023/11/16 04:31:26;;;;;;;1.20;0.47;;;;;;;;;;10560288;27;20039;-74
2023/11/16 04:36:30;;;;;;;3.20;0.80;;;;;;;;;;10559574;27;20039;-74
2023/11/16 04:41:39;;;;;;;1.02;0.50;;;;;;;;;;10556230;27;20043;-75
2023/11/16 04:46:48;;;;;;;4.60;0.80;;;;;;;;;;10556335;27;20048;-75
2023/11/16 04:51:53;;;;;;;3.15;1.55;;;;;;;;;;10558897;28;20063;-74
2023/11/16 04:57:02;;;;;;;3.25;0.98;;;;;;;;;;10560231;27;20043;-75
2023/11/16 05:02:10;;;;;;;1.38;0.52;;;;;;;;;;10536637;27;20670;-74
2023/11/16 05:07:15;;;;;;;2.08;0.25;;;;;;;;;;10535742;27;20170;-75
2023/11/16 05:12:29;;;;;;;4.22;0.68;;;;;;;;;;10556579;27;20043;-75
2023/11/16 05:17:33;;;;;;;5.82;1.00;;;;;;;;;;10558819;27;20043;-75
2023/11/16 05:22:36;;;;;;;6.45;1.50;;;;;;;;;;10556349;27;20353;-75
2023/11/16 05:27:43;;;;;;;0.40;0.30;;;;;;;;;;10538236;27;20139;-75
2023/11/16 05:32:47;;;;;;;3.50;1.30;;;;;;;;;;10541504;27;20051;-75
2023/11/16 05:37:55;;;;;;;7.43;0.97;;;;;;;;;;10549973;27;20095;-74
2023/11/16 05:43:02;;;;;;;3.50;0.80;;;;;;;;;;10558320;27;20130;-74
2023/11/16 05:48:06;;;;;;;0.40;0.38;;;;;;;;;;10557053;28;20044;-74
2023/11/16 05:53:09;;;;;;;4.05;0.88;;;;;;;;;;10557557;27;20052;-74
2023/11/16 05:58:18;;;;;;;2.92;0.98;;;;;;;;;;10561740;27;20127;-75
2023/11/16 06:03:26;;;;;;;3.08;1.27;;;;;;;;;;10553800;27;20048;-74
2023/11/16 06:08:31;;;;;;;2.38;0.82;;;;;;;;;;10520698;27;20128;-74
2023/11/16 06:13:39;;;;;;;3.08;0.47;;;;;;;;;;10556806;27;20831;-74
2023/11/16 06:18:45;;;;;;;4.55;0.95;;;;;;;;;;10539799;27;20059;-74
2023/11/16 06:23:50;;;;;;;1.02;0.85;;;;;;;;;;10547466;27;20457;-76
2023/11/16 06:28:56;;;;;;;2.05;0.95;;;;;;;;;;10539821;27;20046;-74
2023/11/16 06:34:01;;;;;;;1.88;1.10;;;;;;;;;;10554788;28;20455;-74
2023/11/16 06:39:08;;;;;;;0.82;0.60;;;;;;;;;;10550674;28;20465;-74
2023/11/16 06:44:18;;;;;;;0.82;0.50;;;;;;;;;;10538835;27;20519;-74
2023/11/16 06:49:26;;;;;;;3.38;1.27;;;;;;;;;;10532007;28;20038;-74
2023/11/16 06:54:35;;;;;;;4.68;1.70;;;;;;;;;;10549553;27;20047;-73
2023/11/16 06:59:44;;;;;;;2.22;1.05;;;;;;;;;;10554116;27;20031;-74
2023/11/16 07:04:51;;;;;;;4.15;1.30;;;;;;;;;;10534447;28;20126;-74
2023/11/16 07:09:55;;;;;;;5.18;1.65;;;;;;;;;;10549514;27;20036;-74
2023/11/16 07:15:05;;;;;;;4.47;1.50;;;;;;;;;;10522298;27;20108;-73
2023/11/16 07:20:11;;;;;;;2.97;1.58;;;;;;;;;;10544307;27;20051;-73
2023/11/16 07:25:20;;;;;;;0.73;0.70;;;;;;;;;;10541625;28;20039;-74
2023/11/16 07:30:30;;;;;;;3.47;1.65;;;;;;;;;;10550688;28;20128;-74
2023/11/16 07:35:34;;;;;;;4.97;1.67;;;;;;;;;;10527826;28;20460;-74
2023/11/16 07:40:43;;;;;;;4.30;1.85;;;;;;;;;;10546526;28;20094;-75
2023/11/16 07:45:49;;;;;;;2.72;1.63;;;;;;;;;;10544550;28;20574;-75
2023/11/16 07:50:53;;;;;;;6.57;1.77;;;;;;;;;;10553997;27;20031;-74
2023/11/16 07:56:05;;;;;;;2.67;1.40;;;;;;;;;;10538412;27;20566;-74
2023/11/16 08:01:13;;;;;;;3.88;1.70;;;;;;;;;;10538014;27;20055;-74
2023/11/16 08:06:22;;;;;;;4.13;1.67;;;;;;;;;;10548185;27;20377;-74
2023/11/16 08:11:25;;;;;;;5.50;1.75;;;;;;;;;;10559209;27;20412;-75
2023/11/16 08:16:29;;;;;;;;;;;;;;;;;;10563838;27;20151;-73
2023/11/16 08:21:41;;;;;;;2.08;0.98;;;;;;;;;;10550044;27;20010;-74
2023/11/16 08:26:46;;;;;;;2.67;1.27;;;;;;;;;;10525804;27;20039;-73
2023/11/16 08:31:52;;;;;;;2.05;0.80;;;;;;;;;;10534815;27;20124;-74
2023/11/16 08:37:10;;;;;;;2.88;1.30;;;;;;;;;;10552032;27;20540;-74
2023/11/16 08:42:15;;;;;;;2.35;1.00;;;;;;;;;;10532770;28;20055;-74
2023/11/16 08:47:20;;;;;;;3.25;1.00;;;;;;;;;;10520126;27;20047;-74
2023/11/16 08:52:24;;;;;;;2.20;0.77;;;;;;;;;;10542927;27;20047;-74
2023/11/16 08:57:32;;;;;;;2.30;0.82;;;;;;;;;;10550429;27;20037;-73
2023/11/16 09:02:37;;;;;;;1.48;0.82;;;;;;;;;;10555211;28;20138;-74
2023/11/16 09:07:43;;;;;;;2.22;1.38;;;;;;;;;;10551089;27;20059;-74
2023/11/16 09:12:49;;;;;;;3.35;1.10;;;;;;;;;;10556961;27;20409;-74
2023/11/16 09:17:54;;;;;;;5.25;1.00;;;;;;;;;;10557786;27;20043;-74
2023/11/16 09:23:06;;;;;;;0.68;0.55;;;;;;;;;;10550690;27;20062;-73
2023/11/16 09:28:13;;;;;;;3.47;1.25;;;;;;;;;;10532992;27;20039;-73
2023/11/16 09:33:18;;;;;;;2.40;0.80;;;;;;;;;;10536308;27;20052;-74
2023/11/16 09:38:23;;;;;;;1.50;1.10;;;;;;;;;;10552239;27;20070;-73
2023/11/16 09:43:30;;;;;;;2.65;0.93;;;;;;;;;;10553175;27;20059;-74
2023/11/16 09:48:39;;;;;;;1.25;0.35;;;;;;;;;;10550716;27;20183;-74
2023/11/16 09:53:50;;;;;;;5.35;0.90;;;;;;;;;;10531589;27;20044;-73
2023/11/16 09:59:02;;;;;;;0.30;0.30;;;;;;;;;;10553170;27;20624;-72
2023/11/16 10:04:11;;;;;;;4.20;0.93;;;;;;;;;;10550844;27;20039;-72
2023/11/16 10:09:18;;;;;;;1.63;0.57;;;;;;;;;;10528858;27;20044;-73
2023/11/16 10:14:38;;;;;;;4.07;1.30;;;;;;;;;;10529937;27;20043;-73
2023/11/16 10:19:42;;;;;;;0.77;0.43;;;;;;;;;;10532050;27;20039;-74
2023/11/16 10:24:50;;;;;;;1.65;0.85;;;;;;;;;;10516504;27;20043;-75
2023/11/16 10:29:56;;;;;;;2.13;1.00;;;;;;;;;;10531393;27;20474;-75
2023/11/16 10:35:08;;;;;;;3.75;1.30;;;;;;;;;;10552109;27;20130;-73
2023/11/16 10:40:15;;;;;;;;;;;;;;;;;;10549851;27;20567;-75
2023/11/16 10:45:23;;;;;;;2.20;0.90;;;;;;;;;;10547038;27;20321;-74
2023/11/16 10:50:29;;;;;;;1.88;0.98;;;;;;;;;;10545829;27;20044;-74
2023/11/16 10:55:36;;;;;;;1.30;0.68;;;;;;;;;;10553107;27;20130;-74
2023/11/16 11:00:43;;;;;;;3.78;1.30;;;;;;;;;;10533980;28;20054;-74
2023/11/16 11:05:52;;;;;;;3.95;1.17;;;;;;;;;;10551078;27;20122;-74
2023/11/16 11:10:57;;;;;;;1.50;0.93;;;;;;;;;;10551649;27;20035;-74
2023/11/16 11:16:02;;;;;;;;;;;;;;;;;;10546046;27;20121;-74
2023/11/16 11:21:12;;;;;;;2.55;0.80;;;;;;;;;;10547967;27;19950;-74
2023/11/16 11:26:16;;;;;;;2.13;0.77;;;;;;;;;;10530383;28;20527;-74
2023/11/16 11:31:19;;;;;;;;;;;;;;;;;;10564366;27;20617;-74
2023/11/16 11:36:26;;;;;;;4.05;1.10;;;;;;;;;;10546611;27;19941;-74
2023/11/16 11:41:30;;;;;;;2.85;0.93;;;;;;;;;;10547260;28;20066;-74
2023/11/16 11:46:35;;;;;;;1.63;0.85;;;;;;;;;;10553286;28;20149;-74
2023/11/16 11:51:38;;;;;;;;;;;;;;;;;;10548276;28;20051;-74
2023/11/16 11:56:49;;;;;;;3.65;1.25;;;;;;;;;;10510054;28;20026;-74
2023/11/16 12:01:55;;;;;;;1.20;0.70;;;;;;;;;;10528790;28;20040;-74
2023/11/16 12:07:07;;;;;;;1.95;0.88;;;;;;;;;;10548518;28;20523;-74
2023/11/16 12:12:15;;;;;;;0.98;0.50;;;;;;;;;;10556082;28;20126;-74
2023/11/16 12:17:23;;;;;;;2.95;1.00;;;;;;;;;;10552656;28;20146;-74
2023/11/16 12:22:27;;;;;;;5.90;1.00;;;;;;;;;;10512579;28;20531;-75
2023/11/16 12:27:39;;;;;;;1.80;0.70;;;;;;;;;;10528958;28;20074;-74
2023/11/16 12:32:47;;;;;;;3.20;1.05;;;;;;;;;;10561951;27;20036;-75
2023/11/16 12:37:52;;;;;;;2.22;1.30;;;;;;;;;;10553950;28;20124;-74
2023/11/16 12:43:00;;;;;;;3.10;1.10;;;;;;;;;;10553969;27;20031;-75
2023/11/16 12:53:40;;;;;;;1.98;0.90;;;;;;;;;;10547779;27;20556;-75
2023/11/16 12:58:45;;;;;;;1.67;0.60;;;;;;;;;;10552710;27;20031;-74
2023/11/16 13:03:52;;;;;;;4.03;1.08;;;;;;;;;;10535517;27;20051;-75
2023/11/16 13:08:58;;;;;;;4.25;1.50;;;;;;;;;;10534343;27;20217;-75
2023/11/16 13:14:10;;;;;;;3.33;1.08;;;;;;;;;;10562136;27;20042;-75
2023/11/16 13:19:20;;;;;;;4.53;0.90;;;;;;;;;;10523738;27;20602;-76
2023/11/16 13:24:23;;;;;;;1.05;0.70;;;;;;;;;;10558693;27;20071;-75
2023/11/16 13:29:29;;;;;;;1.15;0.75;;;;;;;;;;10521776;27;20150;-75
2023/11/16 13:34:34;;;;;;;3.47;0.90;;;;;;;;;;10557450;27;20106;-75
2023/11/16 13:39:39;;;;;;;0.70;0.55;;;;;;;;;;10535391;27;20048;-76
2023/11/16 13:44:47;;;;;;;3.58;0.75;;;;;;;;;;10553727;27;20135;-76
2023/11/16 13:50:08;;;;;;;1.30;0.75;;;;;;;;;;10553865;27;20047;-76
2023/11/16 13:55:15;;;;;;;3.78;0.98;;;;;;;;;;10555343;27;20062;-75
2023/11/16 14:00:27;;;;;;;0.82;0.80;;;;;;;;;;10529252;28;20153;-75
2023/11/16 14:05:36;;;;;;;3.50;1.30;;;;;;;;;;10532241;28;20054;-76
2023/11/16 14:10:46;;;;;;;3.53;0.82;;;;;;;;;;10537597;27;20092;-74
2023/11/16 14:15:54;;;;;;;5.43;1.73;;;;;;;;;;10571062;27;20070;-76
2023/11/16 14:21:07;;;;;;;4.72;1.65;;;;;;;;;;10536051;28;20039;-75
2023/11/16 14:26:15;;;;;;;4.03;0.95;;;;;;;;;;10550939;28;20177;-76
2023/11/16 14:31:22;;;;;;;2.03;0.70;;;;;;;;;;10531392;27;20043;-76
2023/11/16 14:36:26;;;;;;;0.80;0.80;;;;;;;;;;10547989;27;20047;-75
2023/11/16 14:41:37;;;;;;;4.63;1.17;;;;;;;;;;10517905;27;20474;-74
2023/11/16 14:46:46;;;;;;;3.92;0.90;;;;;;;;;;10546755;27;20305;-75
2023/11/16 14:51:52;;;;;;;3.92;2.10;;;;;;;;;;10549833;27;20564;-74
2023/11/16 14:57:04;;;;;;;3.63;1.13;;;;;;;;;;10561962;27;20732;-73
2023/11/16 15:02:14;;;;;;;3.97;1.10;;;;;;;;;;10531968;28;20111;-74
2023/11/16 15:07:20;;;;;;;2.30;1.17;;;;;;;;;;10529946;28;20772;-74
2023/11/16 15:12:24;;;;;;;3.67;1.40;;;;;;;;;;10551271;27;20170;-75
2023/11/16 15:17:40;;;;;;;6.43;2.43;;;;;;;;;;10552401;28;20064;-73
2023/11/16 15:22:55;;;;;;;7.47;2.17;;;;;;;;;;10548242;27;20453;-75
2023/11/16 15:28:00;;;;;;;2.08;0.68;;;;;;;;;;10536128;28;20065;-75
2023/11/16 15:33:10;;;;;;;1.52;0.93;;;;;;;;;;10551268;28;20040;-75
2023/11/16 15:38:18;;;;;;;2.60;1.38;;;;;;;;;;10547041;28;20177;-75
2023/11/16 15:43:22;;;;;;;1.83;1.23;;;;;;;;;;10557970;28;20055;-74
2023/11/16 15:48:31;;;;;;;1.38;0.77;;;;;;;;;;10528578;28;20207;-75
2023/11/16 15:53:35;;;;;;;1.23;0.55;;;;;;;;;;10546627;28;20043;-75
2023/11/16 15:58:41;;;;;;;7.65;2.30;;;;;;;;;;10551168;28;20055;-74
2023/11/16 16:03:48;;;;;;;5.72;1.60;;;;;;;;;;10540387;28;20043;-74
2023/11/16 16:08:59;;;;;;;6.05;1.90;;;;;;;;;;10551852;28;20424;-73
2023/11/16 16:14:10;;;;;;;3.92;1.48;;;;;;;;;;10539823;27;20058;-74
2023/11/16 16:19:17;;;;;;;4.88;1.95;;;;;;;;;;10538452;27;20047;-75
2023/11/16 16:24:22;;;;;;;6.75;1.98;;;;;;;;;;10555466;27;20058;-74
2023/11/16 16:29:26;;;;;;;5.85;2.13;;;;;;;;;;10541112;28;20136;-74
2023/11/16 16:34:44;;;;;;;3.92;2.15;;;;;;;;;;10543551;27;20043;-73
2023/11/16 16:39:58;;;;;;;3.88;1.67;;;;;;;;;;10538622;27;20134;-73
2023/11/16 16:45:05;;;;;;;4.15;1.60;;;;;;;;;;10560362;27;20615;-74
2023/11/16 16:50:12;;;;;;;2.90;1.58;;;;;;;;;;10555885;27;20467;-75
2023/11/16 16:55:23;;;;;;;3.78;2.03;;;;;;;;;;10560347;27;20622;-74
2023/11/16 17:00:29;;;;;;;2.73;1.57;;;;;;;;;;10558075;27;20035;-74
2023/11/16 17:05:39;;;;;;;1.65;1.02;;;;;;;;;;10540290;27;20727;-76
2023/11/16 17:10:45;;;;;;;1.17;0.93;;;;;;;;;;10540268;28;20071;-75
2023/11/16 17:15:51;;;;;;;3.05;0.93;;;;;;;;;;10537155;27;20607;-74
2023/11/16 17:20:56;;;;;;;2.53;1.45;;;;;;;;;;10520635;27;20040;-75
2023/11/16 17:26:09;;;;;;;3.00;1.60;;;;;;;;;;10552872;27;20055;-75
2023/11/16 17:31:17;;;;;;;2.15;1.77;;;;;;;;;;10555362;27;20460;-74
2023/11/16 17:36:22;;;;;;;1.42;1.20;;;;;;;;;;10511561;28;20481;-74
2023/11/16 17:41:30;;;;;;;5.85;1.33;;;;;;;;;;10538618;27;20519;-74
2023/11/16 17:46:37;;;;;;;4.90;1.15;;;;;;;;;;10555657;27;20492;-74
2023/11/16 17:51:41;;;;;;;4.28;1.70;;;;;;;;;;10554404;27;20046;-74
2023/11/16 17:56:51;;;;;;;2.25;1.23;;;;;;;;;;10537898;27;20043;-74
2023/11/16 18:01:54;;;;;;;1.75;1.08;;;;;;;;;;10529019;27;20139;-73
2023/11/16 18:07:11;;;;;;;4.38;1.88;;;;;;;;;;10553130;27;20047;-75
2023/11/16 18:12:20;;;;;;;3.20;1.58;;;;;;;;;;10550758;27;20645;-76
2023/11/16 18:17:26;;;;;;;6.60;2.08;;;;;;;;;;10553100;27;20086;-74
2023/11/16 18:22:36;;;;;;;7.63;2.78;;;;;;;;;;10550355;27;20040;-76
2023/11/16 18:27:42;;;;;;;3.78;1.98;;;;;;;;;;10545953;27;20084;-75
2023/11/16 18:32:49;;;;;;;6.38;2.40;;;;;;;;;;10567432;27;20040;-75
2023/11/16 18:37:54;;;;;;;9.93;4.22;;;;;;;;;;10526135;28;20043;-74
2023/11/16 18:43:03;;;;;;;7.45;2.80;;;;;;;;;;10539231;27;20100;-76
2023/11/16 18:48:11;;;;;;;10.35;2.28;;;;;;;;;;10549123;28;20042;-76
2023/11/16 18:53:19;;;;;;;2.40;1.52;;;;;;;;;;10556140;27;20043;-75
2023/11/16 18:58:25;;;;;;;5.20;2.17;;;;;;;;;;10558037;27;20055;-75
2023/11/16 19:03:30;;;;;;;6.63;2.28;;;;;;;;;;10538370;27;20612;-74
2023/11/16 19:08:38;;;;;;;5.45;1.90;;;;;;;;;;10531200;27;20204;-76
2023/11/16 19:13:45;;;;;;;3.70;2.05;;;;;;;;;;10534885;28;20461;-76
2023/11/16 19:18:50;;;;;;;5.03;1.80;;;;;;;;;;10557736;27;20565;-75
2023/11/16 19:29:32;;;;;;;5.72;2.65;;;;;;;;;;10555114;27;21524;-78
2023/11/16 19:34:42;;;;;;;4.22;2.10;;;;;;;;;;10555044;28;20042;-77
2023/11/16 19:39:53;;;;;;;9.63;3.53;;;;;;;;;;10554236;27;20077;-77
2023/11/16 19:44:59;;;;;;;6.10;2.63;;;;;;;;;;10533204;28;20132;-77
2023/11/16 19:50:07;;;;;;;2.50;1.27;;;;;;;;;;10547915;28;20048;-77
2023/11/16 19:55:23;;;;;;;3.70;2.05;;;;;;;;;;10552573;28;20074;-76
2023/11/16 20:00:37;;;;;;;13.63;3.53;;;;;;;;;;10517618;28;20131;-75
2023/11/16 20:05:43;;;;;;;7.57;3.80;;;;;;;;;;10550980;28;20650;-75
2023/11/16 20:10:54;;;;;;;9.57;2.83;;;;;;;;;;10555204;28;20135;-75
2023/11/16 20:16:09;;;;;;;5.63;2.58;;;;;;;;;;10519132;28;20762;-76
2023/11/16 20:21:25;;;;;;;2.63;1.52;;;;;;;;;;10546725;28;20035;-76
2023/11/16 20:26:30;;;;;;;;;;;;;;;;;;10535750;28;20519;-77
2023/11/16 20:31:43;;;;;;;;;;;;;;;;;;10566202;27;20008;-76
2023/11/16 20:36:54;;;;;;;5.70;2.47;;;;;;;;;;10555971;28;20381;-76
2023/11/16 20:41:59;;;;;;;2.60;1.30;;;;;;;;;;10555919;28;20067;-76
2023/11/16 20:47:03;;;;;;;3.72;1.65;;;;;;;;;;10551727;28;20032;-77
2023/11/16 20:52:37;;;;;;;5.28;2.17;;;;;;;;;;10534093;28;20513;-76
2023/11/16 20:57:52;;;;;;;5.28;2.55;;;;;;;;;;10540824;27;20051;-75
2023/11/16 21:02:56;;;;;;;3.88;1.65;;;;;;;;;;10570421;27;20397;-77
2023/11/16 21:08:00;;;;;;;3.85;1.42;;;;;;;;;;10573373;27;20051;-77
2023/11/16 21:13:06;;;;;;;4.13;1.30;;;;;;;;;;10535744;27;20138;-76
2023/11/16 21:18:14;;;;;;;3.63;1.83;;;;;;;;;;10570976;28;20382;-76
2023/11/16 21:23:18;;;;;;;2.60;1.52;;;;;;;;;;10549628;28;20047;-76
2023/11/16 21:28:26;;;;;;;1.73;1.02;;;;;;;;;;10572230;27;20059;-76
2023/11/16 21:33:30;;;;;;;2.65;1.10;;;;;;;;;;10573895;27;20039;-76
2023/11/16 21:38:35;;;;;;;3.63;1.20;;;;;;;;;;10571972;27;20051;-77
2023/11/16 21:43:42;;;;;;;2.63;1.40;;;;;;;;;;10571493;27;20031;-77
2023/11/16 21:48:52;;;;;;;2.65;1.00;;;;;;;;;;10571069;27;20180;-76
2023/11/16 21:54:04;;;;;;;2.03;1.00;;;;;;;;;;10538989;27;20118;-76
2023/11/16 21:59:17;;;;;;;3.70;1.30;;;;;;;;;;10558608;27;20131;-75
2023/11/16 22:04:21;;;;;;;1.58;1.08;;;;;;;;;;10563500;28;20040;-76
2023/11/16 22:09:28;;;;;;;2.20;0.70;;;;;;;;;;10564684;27;20412;-76
2023/11/16 22:14:34;;;;;;;1.25;0.57;;;;;;;;;;10560885;28;20047;-76
2023/11/16 22:19:41;;;;;;;1.88;1.10;;;;;;;;;;10537898;28;20458;-76
2023/11/16 22:24:50;;;;;;;3.08;1.45;;;;;;;;;;10523321;28;20036;-78
2023/11/16 22:30:16;;;;;;;6.65;2.95;;;;;;;;;;10560326;27;20048;-76
2023/11/16 22:35:22;;;;;;;6.53;2.13;;;;;;;;;;10558557;27;20691;-76
2023/11/16 22:40:34;;;;;;;2.97;1.35;;;;;;;;;;10563877;27;20081;-77
2023/11/16 22:45:43;;;;;;;5.55;2.00;;;;;;;;;;10534664;28;20047;-77
2023/11/16 22:50:50;;;;;;;6.03;2.33;;;;;;;;;;10556829;27;20055;-77
2023/11/16 22:55:54;;;;;;;3.13;1.77;;;;;;;;;;10531847;27;20039;-77
2023/11/16 23:01:08;;;;;;;4.80;2.08;;;;;;;;;;10551369;28;20139;-76
2023/11/16 23:06:13;;;;;;;5.05;1.90;;;;;;;;;;10553411;27;20047;-76
2023/11/16 23:11:18;;;;;;;3.05;1.70;;;;;;;;;;10551387;28;20036;-76
2023/11/16 23:16:24;;;;;;;4.45;2.03;;;;;;;;;;10552130;27;21034;-77
2023/11/16 23:21:30;;;;;;;1.75;1.10;;;;;;;;;;10540373;28;20486;-77
2023/11/16 23:26:53;;;;;;;3.15;1.58;;;;;;;;;;10565257;27;20054;-77
2023/11/16 23:31:59;;;;;;;1.67;0.95;;;;;;;;;;10541394;28;20043;-77
2023/11/16 23:37:05;;;;;;;3.30;1.25;;;;;;;;;;10541272;28;20052;-77
2023/11/16 23:42:11;;;;;;;2.88;1.27;;;;;;;;;;10538305;28;20058;-77
2023/11/16 23:47:20;;;;;;;2.70;1.60;;;;;;;;;;10537185;28;20055;-76
2023/11/16 23:52:23;;;;;;;3.85;1.63;;;;;;;;;;10533229;28;20092;-76
2023/11/16 23:57:27;;;;;;;2.47;1.30;;;;;;;;;;10543564;28;20400;-77
